Potomac, Virginia
Current Conditions -  °F | °C
As of 7:52 PM on Monday 24 Nov 2014 (Local Time) from KDCA Reporting Station
Scattered Clouds Scattered Clouds  
Wind Chill: 63°   Ceiling: Unl
Heat Index: 63°   Visibility: 10mi
Dew Point: 52°   Wind: 10mph
Humidity: 67%   Direction: 190°S
Pressure: 29.72"   Gusts: NA
Location:  38.8194°N, 77.0596°W
Report Text: KDCA 250052Z 19009KT 10SM SCT250 17/11 A2972 RMK AO2 SLP064 T01720111
Loading
Personal Weather Stations






























Interactive Weather Map New forecast layout! Learn more

10-Day Weather Forecast

Advertisements
Track Severe Weather on mobile